createdAt,value
2019-01-12T00:03:08.679Z,98328.72
2019-01-12T00:08:12.824Z,98341.72
2019-01-12T00:13:16.870Z,98342.50
2019-01-12T00:18:20.819Z,98329.07
2019-01-12T00:23:24.880Z,98323.93
2019-01-12T00:28:29.050Z,98317.31
2019-01-12T00:33:33.710Z,98329.97
2019-01-12T00:38:38.132Z,98328.03
2019-01-12T00:43:42.158Z,98341.28
2019-01-12T00:48:47.139Z,98334.03
2019-01-12T00:53:51.184Z,98341.73
2019-01-12T00:58:55.128Z,98335.05
2019-01-12T01:03:59.342Z,98332.13
2019-01-12T01:09:07.648Z,98325.81
2019-01-12T01:14:11.644Z,98327.98
2019-01-12T01:19:15.857Z,98321.06
2019-01-12T01:24:19.920Z,98317.80
2019-01-12T01:29:24.066Z,98299.38
2019-01-12T01:34:28.065Z,98283.11
2019-01-12T01:39:32.133Z,98290.33
2019-01-12T01:44:36.099Z,98286.50
2019-01-12T01:49:40.550Z,98274.50
2019-01-12T01:54:44.773Z,98271.81
2019-01-12T01:59:48.803Z,98275.20
2019-01-12T02:04:52.840Z,98277.23
2019-01-12T02:09:56.830Z,98270.13
2019-01-12T02:15:01.046Z,98264.15
2019-01-12T02:20:05.280Z,98267.53
2019-01-12T02:25:09.560Z,98263.46
2019-01-12T02:30:22.301Z,98262.56
2019-01-12T02:35:26.479Z,98248.68
2019-01-12T02:40:30.623Z,98243.95
2019-01-12T02:45:34.785Z,98244.05
2019-01-12T02:50:39.640Z,98246.30
2019-01-12T02:55:43.670Z,98226.63
2019-01-12T03:00:47.682Z,98249.03
2019-01-12T03:05:52.072Z,98218.83
2019-01-12T03:10:56.191Z,98207.98
2019-01-12T03:16:00.219Z,98204.70
2019-01-12T03:21:06.750Z,98200.42
2019-01-12T03:26:12.284Z,98200.23
2019-01-12T03:31:16.407Z,98197.50
2019-01-12T03:36:23.566Z,98176.95
2019-01-12T03:41:27.567Z,98184.62
2019-01-12T03:46:31.617Z,98161.80
2019-01-12T03:51:39.147Z,98153.09
2019-01-12T03:56:43.194Z,98150.64
2019-01-12T04:01:49.066Z,98165.67
2019-01-12T04:06:53.084Z,98174.37
2019-01-12T04:11:57.163Z,98166.36
2019-01-12T04:17:01.345Z,98165.77
2019-01-12T04:22:05.412Z,98177.09
2019-01-12T04:27:09.317Z,98156.77
2019-01-12T04:32:13.355Z,98162.07
2019-01-12T04:37:17.446Z,98142.53
2019-01-12T04:42:22.005Z,98157.09
2019-01-12T04:47:26.132Z,98163.98
2019-01-12T04:52:30.975Z,98181.95
2019-01-12T04:57:34.953Z,98197.75
2019-01-12T05:02:39.119Z,98192.23
2019-01-12T05:07:43.046Z,98195.04
2019-01-12T05:12:47.009Z,98184.08
2019-01-12T05:17:51.064Z,98192.78
2019-01-12T05:22:54.993Z,98203.84
2019-01-12T05:28:00.636Z,98199.25
2019-01-12T05:33:06.353Z,98208.73
2019-01-12T05:38:10.500Z,98194.81
2019-01-12T05:43:15.982Z,98181.73
2019-01-12T05:48:20.126Z,98195.50
2019-01-12T05:53:24.685Z,98181.28
2019-01-12T05:58:28.605Z,98164.09
2019-01-12T06:03:33.101Z,98190.09
2019-01-12T06:08:37.308Z,98175.20
2019-01-12T06:13:41.898Z,98168.64
2019-01-12T06:18:47.550Z,98170.20
2019-01-12T06:23:51.412Z,98178.00
2019-01-12T06:28:55.603Z,98197.55
2019-01-12T06:33:59.501Z,98205.31
2019-01-12T06:39:08.288Z,98208.92
2019-01-12T06:44:14.191Z,98191.33
2019-01-12T06:49:18.375Z,98195.97
2019-01-12T06:54:25.152Z,98190.52
2019-01-12T06:59:29.363Z,98215.84
2019-01-12T07:04:35.417Z,98178.11
2019-01-12T07:09:39.397Z,98161.41
2019-01-12T07:14:43.576Z,98198.34
2019-01-12T07:19:47.921Z,98175.42
2019-01-12T07:24:52.401Z,98175.29
2019-01-12T07:29:56.472Z,98198.67
2019-01-12T07:35:00.898Z,98201.50
2019-01-12T07:40:05.215Z,98205.89
2019-01-12T07:45:09.390Z,98197.05
2019-01-12T07:50:14.593Z,98214.64
2019-01-12T07:55:19.389Z,98182.48
2019-01-12T08:00:23.504Z,98175.88
2019-01-12T08:05:27.792Z,98187.81
2019-01-12T08:10:31.739Z,98170.47
2019-01-12T08:15:35.757Z,98156.03
2019-01-12T08:20:39.779Z,98151.27
2019-01-12T08:25:44.029Z,98142.23
2019-01-12T08:30:47.930Z,98147.27
2019-01-12T08:35:51.989Z,98139.09
2019-01-12T08:40:56.113Z,98126.69
2019-01-12T08:46:00.830Z,98122.59
2019-01-12T08:51:05.281Z,98135.91
2019-01-12T08:56:10.451Z,98119.75
2019-01-12T09:01:14.661Z,98110.35
2019-01-12T09:06:18.695Z,98097.03
2019-01-12T09:11:22.777Z,98073.55
2019-01-12T09:16:27.025Z,98058.03
2019-01-12T09:21:31.044Z,98056.64
2019-01-12T09:26:36.468Z,98040.02
2019-01-12T09:31:40.450Z,98030.25
2019-01-12T09:36:44.628Z,98014.32
2019-01-12T09:41:48.594Z,98023.11
2019-01-12T09:46:52.728Z,98003.61
2019-01-12T09:51:57.165Z,97997.72
2019-01-12T09:57:03.667Z,97987.02
2019-01-12T10:02:08.029Z,97987.02
2019-01-12T10:07:12.547Z,97982.59
2019-01-12T10:12:16.532Z,97971.41
2019-01-12T10:17:20.655Z,97966.42
2019-01-12T10:22:28.582Z,97953.64
2019-01-12T10:27:30.931Z,97955.53
2019-01-12T10:32:35.147Z,97945.11
2019-01-12T10:37:39.478Z,97940.77
2019-01-12T10:42:43.785Z,97938.08
2019-01-12T10:47:49.469Z,97934.63
2019-01-12T10:52:53.963Z,97926.81
2019-01-12T10:58:00.140Z,97915.21
2019-01-12T11:03:04.901Z,97909.59
2019-01-12T11:08:08.986Z,97908.83
2019-01-12T11:13:12.925Z,97909.91
2019-01-12T11:18:16.850Z,97898.04
2019-01-12T11:23:21.695Z,97889.13
2019-01-12T11:28:34.732Z,97885.89
2019-01-12T11:33:39.394Z,97868.91
2019-01-12T11:38:52.556Z,97868.66
2019-01-12T11:43:58.169Z,97861.63
2019-01-12T11:49:02.799Z,97858.30
2019-01-12T11:54:39.811Z,97861.38
2019-01-12T11:59:49.904Z,97859.62
2019-01-12T12:04:53.915Z,97859.65
2019-01-12T12:09:58.135Z,97855.66
2019-01-12T12:15:02.182Z,97857.47
2019-01-12T12:20:10.263Z,97852.47
2019-01-12T12:25:14.515Z,97858.28
2019-01-12T12:30:21.271Z,97853.97
2019-01-12T12:35:25.558Z,97851.22
2019-01-12T12:40:29.923Z,97845.23
2019-01-12T12:45:35.701Z,97844.80
2019-01-12T12:50:39.695Z,97839.13
2019-01-12T12:55:45.657Z,97834.02
2019-01-12T13:00:50.458Z,97834.89
2019-01-12T13:05:54.760Z,97836.88
2019-01-12T13:10:58.929Z,97826.41
2019-01-12T13:16:03.173Z,97833.48
2019-01-12T13:21:07.189Z,97836.84
2019-01-12T13:26:11.223Z,97833.84
2019-01-12T13:31:15.225Z,97830.16
2019-01-12T13:36:19.394Z,97834.38
2019-01-12T13:41:23.321Z,97832.55
2019-01-12T13:46:27.516Z,97837.98
2019-01-12T13:51:31.501Z,97824.74
2019-01-12T13:56:35.666Z,97844.06
2019-01-12T14:01:40.350Z,97847.56
2019-01-12T14:06:44.582Z,97845.11
2019-01-12T14:11:48.713Z,97841.58
2019-01-12T14:16:52.968Z,97851.46
2019-01-12T14:21:57.122Z,97860.80
2019-01-12T14:27:01.309Z,97849.95
2019-01-12T14:32:05.451Z,97844.20
2019-01-12T14:37:09.490Z,97843.24
2019-01-12T14:42:13.415Z,97841.06
2019-01-12T14:47:17.403Z,97833.17
2019-01-12T14:52:21.525Z,97836.58
2019-01-12T14:57:25.827Z,97843.47
2019-01-12T15:02:30.514Z,97849.41
2019-01-12T15:07:34.829Z,97843.59
2019-01-12T15:12:39.038Z,97847.27
2019-01-12T15:17:42.946Z,97838.20
2019-01-12T15:22:47.629Z,97847.08
2019-01-12T15:27:51.883Z,97838.90
2019-01-12T15:32:55.973Z,97868.91
2019-01-12T15:38:00.021Z,97855.08
2019-01-12T15:43:04.265Z,97855.59
2019-01-12T15:48:08.359Z,97859.91
2019-01-12T15:53:13.564Z,97858.42
2019-01-12T15:58:17.682Z,97872.39
2019-01-12T16:03:22.137Z,97876.03
2019-01-12T16:08:26.316Z,97875.80
2019-01-12T16:13:31.170Z,97872.34
2019-01-12T16:18:36.039Z,97871.73
2019-01-12T16:23:40.074Z,97880.61
2019-01-12T16:28:44.436Z,97893.88
2019-01-12T16:33:48.711Z,97896.36
2019-01-12T16:38:52.788Z,97909.90
2019-01-12T16:43:56.861Z,97895.55
2019-01-12T16:49:00.986Z,97888.47
2019-01-12T16:54:05.076Z,97909.20
2019-01-12T16:59:09.224Z,97919.97
2019-01-12T17:04:13.865Z,97921.56
2019-01-12T17:09:17.917Z,97904.27
2019-01-12T17:14:22.112Z,97920.75
2019-01-12T17:19:26.284Z,97934.16
2019-01-12T17:24:30.516Z,97933.19
2019-01-12T17:29:35.776Z,97928.52
2019-01-12T17:34:40.936Z,97932.09
2019-01-12T17:39:46.041Z,97941.42
2019-01-12T17:44:50.440Z,97948.19
2019-01-12T17:49:54.410Z,97947.61
2019-01-12T17:54:58.507Z,97942.28
2019-01-12T18:00:03.711Z,97953.48
2019-01-12T18:05:10.141Z,97912.66
2019-01-12T18:10:15.213Z,97888.28
2019-01-12T18:15:19.466Z,97915.30
2019-01-12T18:20:23.606Z,97947.78
2019-01-12T18:25:27.648Z,97912.51
2019-01-12T18:30:31.845Z,97920.48
2019-01-12T18:35:36.106Z,97932.02
2019-01-12T18:40:40.289Z,97907.06
2019-01-12T18:45:44.231Z,97919.66
2019-01-12T18:50:49.345Z,97902.79
2019-01-12T18:55:53.220Z,97939.92
2019-01-12T19:00:58.575Z,97941.17
2019-01-12T19:06:03.987Z,97991.61
2019-01-12T19:11:08.234Z,97923.62
2019-01-12T19:16:12.304Z,97933.42
2019-01-12T19:21:16.445Z,97907.32
2019-01-12T19:26:20.518Z,97959.56
2019-01-12T19:31:24.599Z,97932.48
2019-01-12T19:36:29.039Z,97953.92
2019-01-12T19:41:33.175Z,97939.09
2019-01-12T19:46:37.507Z,97936.68
2019-01-12T19:51:41.853Z,97926.96
2019-01-12T19:56:45.944Z,97955.59
2019-01-12T20:01:50.271Z,97945.17
2019-01-12T20:06:54.752Z,97911.50
2019-01-12T20:11:58.780Z,97928.20
2019-01-12T20:17:04.917Z,97888.67
2019-01-12T20:22:09.773Z,97911.98
2019-01-12T20:27:13.768Z,97891.16
2019-01-12T20:32:49.582Z,97880.50
2019-01-12T20:38:34.584Z,97885.76
2019-01-12T20:44:43.719Z,97892.69
2019-01-12T20:50:38.419Z,97862.80
2019-01-12T20:56:24.249Z,97894.88
2019-01-12T21:01:39.328Z,97895.17
2019-01-12T21:07:07.215Z,97886.86
2019-01-12T21:13:06.001Z,97893.50
2019-01-12T21:18:10.107Z,97880.36
2019-01-12T21:23:14.175Z,97882.02
2019-01-12T21:28:18.715Z,97890.36
2019-01-12T21:33:22.665Z,97886.70
2019-01-12T21:38:26.762Z,97896.14
2019-01-12T21:43:30.873Z,97886.16
2019-01-12T21:48:34.955Z,97871.94
2019-01-12T21:53:39.211Z,97871.09
2019-01-12T21:58:43.643Z,97898.33
2019-01-12T22:03:47.642Z,97877.32
2019-01-12T22:08:51.860Z,97861.14
2019-01-12T22:13:57.737Z,97888.31
2019-01-12T22:19:02.809Z,97894.59
2019-01-12T22:24:06.992Z,97892.33
2019-01-12T22:29:10.966Z,97895.72
2019-01-12T22:34:14.867Z,97891.02
2019-01-12T22:39:18.922Z,97879.81
2019-01-12T22:44:22.819Z,97871.73
2019-01-12T22:49:26.851Z,97884.06
2019-01-12T22:54:30.940Z,97877.73
2019-01-12T22:59:35.039Z,97878.17
2019-01-12T23:04:38.953Z,97879.63
2019-01-12T23:09:43.944Z,97876.49
2019-01-12T23:14:48.285Z,97870.84
2019-01-12T23:19:52.463Z,97881.23
2019-01-12T23:24:56.543Z,97859.94
2019-01-12T23:30:04.623Z,97856.46
2019-01-12T23:35:07.448Z,97857.79
2019-01-12T23:40:11.941Z,97857.68
2019-01-12T23:45:16.061Z,97853.31
2019-01-12T23:50:20.128Z,97846.98
2019-01-12T23:55:24.754Z,97843.75
